Time;durP1;ratioP1;P1;durP2;ratioP2;P2;SDS_P1;SDS_P2;PMS_P1;PMS_P2;Temp;Humidity;BMP_temperature;BMP_pressure;BME280_temperature;BME280_humidity;BME280_pressure;Samples;Min_cycle;Max_cycle;Signal;HPM_P1;HPM_P2
2023/04/16 00:00:03;;;;;;;23.50;19.30;;;;;;;5.84;87.09;98428.17;225512;1277;22938;-82
2023/04/16 00:05:13;;;;;;;28.30;22.80;;;;;;;5.79;86.79;98430.09;225658;1275;26499;-83
2023/04/16 00:10:15;;;;;;;29.30;23.50;;;;;;;5.73;87.02;98425.55;225610;1278;22524;-82
2023/04/16 00:15:17;;;;;;;30.50;24.20;;;;;;;5.67;87.26;98422.63;225636;1278;22520;-82
2023/04/16 00:20:20;;;;;;;31.10;24.80;;;;;;;5.61;87.21;98425.36;225657;1276;22536;-80
2023/04/16 00:25:22;;;;;;;27.50;22.00;;;;;;;5.56;87.27;98431.85;225555;1275;22518;-84
2023/04/16 00:30:24;;;;;;;29.90;24.50;;;;;;;5.53;87.27;98434.33;225722;1278;22537;-80
2023/04/16 00:35:26;;;;;;;30.10;23.90;;;;;;;5.48;87.56;98435.27;225903;1276;22535;-81
2023/04/16 00:40:29;;;;;;;26.50;20.80;;;;;;;5.44;87.48;98442.59;225666;1278;22527;-83
2023/04/16 00:45:31;;;;;;;28.80;23.20;;;;;;;5.38;87.19;98445.70;225416;1278;22554;-81
2023/04/16 00:50:34;;;;;;;27.60;22.50;;;;;;;5.30;87.13;98449.15;225948;1277;22535;-81
2023/04/16 00:55:36;;;;;;;39.30;21.30;;;;;;;5.24;87.18;98451.20;225738;1278;22565;-81
2023/04/16 01:00:38;;;;;;;64.70;22.40;;;;;;;5.19;87.34;98451.75;225938;1278;22535;-81
2023/04/16 01:05:40;;;;;;;58.60;16.60;;;;;;;5.19;87.64;98457.52;225705;1278;22524;-83
2023/04/16 01:10:42;;;;;;;74.50;16.90;;;;;;;5.14;87.17;98458.23;225725;1278;22565;-82
2023/04/16 01:15:44;;;;;;;59.50;14.40;;;;;;;5.09;87.15;98465.34;225733;1273;25393;-80
2023/04/16 01:20:48;;;;;;;49.80;16.50;;;;;;;5.05;87.46;98466.16;225758;1278;23383;-81
2023/04/16 01:25:49;;;;;;;72.70;19.00;;;;;;;5.01;87.49;98467.13;225719;1273;22538;-81
2023/04/16 01:30:52;;;;;;;57.80;20.00;;;;;;;5.02;87.76;98467.92;225912;1275;22540;-81
2023/04/16 01:36:13;;;;;;;75.80;25.70;;;;;;;5.02;87.85;98470.81;225815;1278;22539;-81
2023/04/16 01:41:15;;;;;;;74.40;25.10;;;;;;;5.03;87.83;98474.41;225907;1263;22791;-81
2023/04/16 01:46:22;;;;;;;82.90;26.90;;;;;;;5.05;87.87;98478.61;225658;1278;22531;-80
2023/04/16 01:51:26;;;;;;;95.00;28.60;;;;;;;5.04;87.73;98479.25;225792;1276;22587;-82
2023/04/16 01:56:28;;;;;;;74.20;25.10;;;;;;;5.00;87.50;98479.80;225746;1277;22908;-81
2023/04/16 02:01:30;;;;;;;62.60;25.70;;;;;;;4.95;87.64;98483.60;225732;1278;22530;-81
2023/04/16 02:06:32;;;;;;;49.00;20.90;;;;;;;4.91;87.68;98487.70;225801;1277;22577;-81
2023/04/16 02:11:35;;;;;;;45.30;21.20;;;;;;;4.86;87.53;98485.23;225764;1278;22534;-81
2023/04/16 02:16:38;;;;;;;51.20;17.50;;;;;;;4.87;87.86;98484.50;225555;1278;23951;-81
2023/04/16 02:21:54;;;;;;;37.90;17.10;;;;;;;4.87;87.78;98484.16;225998;1276;24375;-80
2023/04/16 02:26:57;;;;;;;35.90;18.30;;;;;;;4.85;87.98;98482.73;226013;1275;22541;-81
2023/04/16 02:31:59;;;;;;;61.70;17.70;;;;;;;4.84;87.84;98486.02;225709;1275;22531;-81
2023/04/16 02:37:02;;;;;;;51.00;16.50;;;;;;;4.82;88.04;98485.89;225771;1276;22530;-82
2023/04/16 02:42:05;;;;;;;54.00;16.10;;;;;;;4.79;87.95;98493.01;225924;1276;22539;-82
2023/04/16 02:47:07;;;;;;;77.70;18.80;;;;;;;4.76;87.97;98500.05;225790;1277;22520;-81
2023/04/16 02:52:09;;;;;;;57.70;19.40;;;;;;;4.77;88.05;98498.27;225932;1275;22524;-82
2023/04/16 02:57:11;;;;;;;36.30;17.60;;;;;;;4.77;88.16;98499.27;225776;1276;22576;-82
2023/04/16 03:02:13;;;;;;;43.60;16.60;;;;;;;4.78;88.24;98507.59;225993;1275;22540;-81
2023/04/16 03:07:16;;;;;;;61.10;17.90;;;;;;;4.80;88.54;98512.90;225827;1278;22651;-81
2023/04/16 03:12:18;;;;;;;56.50;17.50;;;;;;;4.87;88.51;98509.10;225959;1278;22520;-81
2023/04/16 03:17:20;;;;;;;47.10;15.60;;;;;;;4.93;88.77;98514.35;225664;1278;22546;-82
2023/04/16 03:22:22;;;;;;;38.70;14.30;;;;;;;4.96;88.48;98520.00;225708;1277;22530;-80
2023/04/16 03:27:24;;;;;;;37.60;14.60;;;;;;;4.94;88.42;98533.79;225785;1276;22542;-82
2023/04/16 03:32:27;;;;;;;49.20;16.20;;;;;;;4.92;88.24;98538.20;225937;1278;22533;-83
2023/04/16 03:37:29;;;;;;;46.90;17.50;;;;;;;4.92;88.34;98543.89;225759;1278;24311;-81
2023/04/16 03:42:32;;;;;;;67.40;17.20;;;;;;;4.95;88.55;98548.48;225914;1276;22523;-81
2023/04/16 03:47:34;;;;;;;59.70;15.40;;;;;;;4.99;88.77;98557.54;225970;1276;22548;-82
2023/04/16 03:52:37;;;;;;;35.60;15.30;;;;;;;4.98;88.60;98562.52;225638;1275;22573;-80
2023/04/16 03:57:40;;;;;;;50.60;17.60;;;;;;;4.99;88.59;98565.59;225925;1272;22575;-80
2023/04/16 04:02:45;;;;;;;57.00;18.30;;;;;;;5.00;88.67;98575.84;225952;1276;22537;-81
2023/04/16 04:07:51;;;;;;;38.20;17.70;;;;;;;4.99;88.58;98583.62;225777;1272;25019;-81
2023/04/16 04:12:53;;;;;;;43.60;18.00;;;;;;;4.98;88.32;98594.35;225939;1273;22530;-82
2023/04/16 04:17:56;;;;;;;21.70;15.80;;;;;;;4.98;88.42;98597.83;225955;1272;22558;-81
2023/04/16 04:22:59;;;;;;;49.40;22.20;;;;;;;4.98;88.62;98599.75;225952;1275;23566;-81
2023/04/16 04:28:01;;;;;;;54.00;23.70;;;;;;;5.01;88.66;98605.55;225584;1276;22547;-81
2023/04/16 04:33:03;;;;;;;43.20;23.80;;;;;;;5.04;88.49;98607.95;225659;1275;22538;-81
2023/04/16 04:38:05;;;;;;;42.80;25.70;;;;;;;5.09;88.47;98613.41;225797;1275;22609;-82
2023/04/16 04:43:09;;;;;;;57.50;28.60;;;;;;;5.14;88.51;98617.98;225647;1278;22530;-80
2023/04/16 04:48:12;;;;;;;56.90;30.10;;;;;;;5.22;88.56;98627.44;225744;1276;22545;-81
2023/04/16 04:53:19;;;;;;;44.40;27.80;;;;;;;5.29;88.50;98633.27;225830;1276;22528;-85
2023/04/16 04:58:22;;;;;;;40.20;26.70;;;;;;;5.38;88.32;98637.17;225756;1270;22569;-80
2023/04/16 05:03:24;;;;;;;37.30;24.50;;;;;;;5.45;88.38;98642.14;225969;1277;22578;-82
2023/04/16 05:08:26;;;;;;;36.30;24.60;;;;;;;5.50;88.24;98649.80;225955;1275;24257;-82
2023/04/16 05:13:28;;;;;;;38.40;25.70;;;;;;;5.57;88.51;98652.06;225912;1275;22551;-81
2023/04/16 05:18:31;;;;;;;35.30;24.70;;;;;;;5.72;88.74;98654.65;225960;1275;22535;-82
2023/04/16 05:23:33;;;;;;;31.80;23.60;;;;;;;5.94;88.71;98652.03;225996;1275;22576;-82
2023/04/16 05:28:35;;;;;;;32.00;22.30;;;;;;;6.22;88.74;98659.41;225920;1275;22522;-80
2023/04/16 05:33:37;;;;;;;29.90;21.60;;;;;;;6.47;88.69;98658.73;225722;1262;22574;-81
2023/04/16 05:38:39;;;;;;;24.70;19.40;;;;;;;6.76;88.81;98660.84;225975;1275;22567;-80
2023/04/16 05:43:41;;;;;;;24.70;20.10;;;;;;;7.02;88.82;98672.54;225705;1278;22648;-81
2023/04/16 05:48:43;;;;;;;23.90;18.80;;;;;;;7.27;88.45;98678.14;225703;1276;22531;-79
2023/04/16 05:53:45;;;;;;;23.80;18.40;;;;;;;7.51;87.82;98679.43;225616;1278;24228;-80
2023/04/16 05:58:47;;;;;;;20.60;16.40;;;;;;;7.82;88.83;98676.95;225963;1272;22539;-83
2023/04/16 06:03:49;;;;;;;20.90;16.20;;;;;;;8.08;87.86;98681.27;225911;1276;25287;-81
2023/04/16 06:08:52;;;;;;;20.40;15.90;;;;;;;8.25;87.45;98687.27;225724;1278;22527;-81
2023/04/16 06:13:54;;;;;;;17.50;15.20;;;;;;;8.46;87.51;98692.56;225772;1276;22670;-82
2023/04/16 06:18:56;;;;;;;15.50;13.80;;;;;;;8.73;87.37;98699.38;225862;1273;22540;-83
2023/04/16 06:23:58;;;;;;;16.50;14.10;;;;;;;8.92;86.65;98706.40;225903;1273;22538;-81
2023/04/16 06:29:00;;;;;;;15.60;13.90;;;;;;;9.04;86.71;98712.63;225899;1278;22547;-82
2023/04/16 06:34:02;;;;;;;18.50;15.50;;;;;;;9.13;86.23;98717.76;225890;1276;23191;-82
2023/04/16 06:39:04;;;;;;;17.60;15.20;;;;;;;9.15;86.09;98718.85;225734;1276;22531;-82
2023/04/16 06:44:06;;;;;;;18.80;15.10;;;;;;;9.31;86.33;98712.45;225845;1278;24391;-80
2023/04/16 06:49:08;;;;;;;17.50;14.40;;;;;;;9.40;85.59;98716.43;225857;1276;22529;-81
2023/04/16 06:54:11;;;;;;;15.70;13.20;;;;;;;9.49;85.40;98719.20;225923;1275;23364;-82
2023/04/16 06:59:12;;;;;;;14.70;12.50;;;;;;;9.65;85.48;98715.76;225919;1276;22573;-83
2023/04/16 07:04:14;;;;;;;12.50;10.90;;;;;;;9.83;85.82;98724.63;225660;1274;22540;-82
2023/04/16 07:09:19;;;;;;;10.90;9.40;;;;;;;10.00;85.33;98721.70;225864;1268;22537;-82
2023/04/16 07:14:21;;;;;;;12.30;10.50;;;;;;;10.15;85.27;98725.63;225834;1275;22529;-82
2023/04/16 07:19:23;;;;;;;12.20;10.20;;;;;;;10.39;85.33;98728.05;225712;1277;22531;-83
2023/04/16 07:24:26;;;;;;;9.50;8.50;;;;;;;10.63;84.92;98726.98;225850;1275;22527;-80
2023/04/16 07:29:28;;;;;;;8.60;7.80;;;;;;;10.87;84.32;98737.96;225609;1278;22549;-81
2023/04/16 07:34:30;;;;;;;9.80;7.40;;;;;;;11.12;83.95;98736.97;225915;1276;22536;-81
2023/04/16 07:39:32;;;;;;;8.00;7.30;;;;;;;11.47;83.87;98733.22;225873;1273;22547;-82
2023/04/16 07:44:34;;;;;;;7.60;6.90;;;;;;;11.66;82.82;98737.67;225861;1276;25279;-81
2023/04/16 07:49:37;;;;;;;7.00;6.30;;;;;;;11.88;82.73;98739.40;225866;1275;22529;-81
2023/04/16 07:54:39;;;;;;;7.00;6.30;;;;;;;12.09;81.82;98747.80;225403;1278;22527;-81
2023/04/16 07:59:41;;;;;;;8.00;7.20;;;;;;;12.25;81.75;98752.70;225854;1274;22542;-81
2023/04/16 08:04:43;;;;;;;7.20;6.50;;;;;;;12.28;81.05;98762.21;225527;1278;22626;-82
2023/04/16 08:09:55;;;;;;;7.60;6.60;;;;;;;12.13;80.33;98767.09;225684;1278;22537;-82
2023/04/16 08:14:57;;;;;;;6.70;6.00;;;;;;;12.22;81.25;98772.58;225812;1275;22646;-82
2023/04/16 08:19:59;;;;;;;5.40;4.90;;;;;;;12.56;80.70;98770.59;225651;1278;22639;-81
2023/04/16 08:25:02;;;;;;;6.20;5.70;;;;;;;12.81;79.74;98768.92;225776;1278;24241;-81
2023/04/16 08:30:06;;;;;;;7.40;6.70;;;;;;;12.92;79.15;98772.65;225776;1278;22537;-82
2023/04/16 08:35:09;;;;;;;6.70;6.10;;;;;;;13.11;78.34;98778.85;225802;1272;22554;-82
2023/04/16 08:40:11;;;;;;;7.00;6.40;;;;;;;13.35;78.10;98783.81;225674;1278;24245;-82
2023/04/16 08:45:16;;;;;;;6.10;5.50;;;;;;;13.63;77.77;98785.93;225768;1275;24276;-83
2023/04/16 08:50:25;;;;;;;5.80;5.30;;;;;;;13.81;77.10;98782.84;225643;1278;24344;-83
2023/04/16 08:55:34;;;;;;;6.00;5.50;;;;;;;13.67;76.30;98786.25;225755;1275;22536;-83
2023/04/16 09:00:37;;;;;;;6.00;5.50;;;;;;;13.53;75.92;98786.33;225780;1275;22517;-82
2023/04/16 09:05:41;;;;;;;5.60;5.10;;;;;;;13.39;75.89;98794.45;225747;1278;22535;-82
2023/04/16 09:10:43;;;;;;;6.10;5.50;;;;;;;13.62;76.41;98795.46;225680;1278;25383;-83
2023/04/16 09:15:45;;;;;;;6.60;6.00;;;;;;;14.10;76.24;98792.46;225841;1277;24248;-81
2023/04/16 09:20:51;;;;;;;6.10;5.50;;;;;;;14.45;75.01;98791.23;225497;1278;22535;-81
2023/04/16 09:25:54;;;;;;;4.50;4.20;;;;;;;14.44;73.64;98797.21;225824;1276;22520;-83
2023/04/16 09:31:12;;;;;;;5.80;5.20;;;;;;;14.26;72.97;98798.66;225550;1278;23712;-81
2023/04/16 09:36:22;;;;;;;8.50;7.50;;;;;;;14.15;72.95;98798.98;225794;1275;25292;-83
2023/04/16 09:41:29;;;;;;;8.60;7.80;;;;;;;14.26;73.75;98798.91;225791;1279;22559;-82
2023/04/16 09:46:34;;;;;;;7.40;6.70;;;;;;;14.65;73.29;98801.68;225832;1275;22534;-82
2023/04/16 09:51:37;;;;;;;7.40;6.80;;;;;;;14.96;72.62;98805.00;225783;1276;22526;-84
2023/04/16 09:56:42;;;;;;;66.30;52.20;;;;;;;14.94;71.98;98801.62;225538;1275;22531;-83
2023/04/16 10:01:53;;;;;;;9.00;8.10;;;;;;;14.79;71.81;98799.99;225518;1278;22524;-79
2023/04/16 10:07:15;;;;;;;8.50;7.50;;;;;;;14.85;72.35;98800.33;225577;1278;22535;-83
2023/04/16 10:12:18;;;;;;;6.60;6.10;;;;;;;15.06;71.90;98802.42;225762;1275;22531;-83
2023/04/16 10:17:21;;;;;;;6.80;6.20;;;;;;;15.32;71.04;98804.69;225829;1266;22569;-82
2023/04/16 10:22:23;;;;;;;7.80;7.10;;;;;;;15.46;70.64;98807.34;225802;1278;22759;-83
2023/04/16 10:27:26;;;;;;;7.60;6.90;;;;;;;15.62;69.95;98817.23;225461;1278;155667;-83
2023/04/16 10:32:30;;;;;;;7.20;6.60;;;;;;;15.75;69.38;98819.73;225661;1278;23276;-84
2023/04/16 10:37:32;;;;;;;7.30;6.70;;;;;;;15.88;68.95;98822.13;225801;1278;22550;-83
2023/04/16 10:42:37;;;;;;;7.00;6.30;;;;;;;16.04;68.99;98825.58;225511;1278;22527;-81
2023/04/16 10:47:39;;;;;;;6.90;6.30;;;;;;;16.19;68.60;98825.60;225787;1278;22520;-84
2023/04/16 10:52:41;;;;;;;5.80;5.30;;;;;;;16.21;68.09;98826.73;225830;1275;23144;-84
2023/04/16 10:57:48;;;;;;;6.00;5.40;;;;;;;16.19;68.01;98823.30;225532;1278;22531;-85
2023/04/16 11:02:53;;;;;;;5.20;4.60;;;;;;;16.11;67.21;98821.27;225794;1278;22574;-82
2023/04/16 11:08:13;;;;;;;6.40;5.70;;;;;;;16.08;66.61;98825.48;225674;1276;23797;-83
2023/04/16 11:13:16;;;;;;;6.90;6.30;;;;;;;15.98;66.24;98824.77;225809;1275;22542;-80
2023/04/16 11:18:19;;;;;;;6.50;6.00;;;;;;;15.93;66.75;98828.04;225499;1278;22529;-83
2023/04/16 11:23:22;;;;;;;6.70;6.10;;;;;;;16.17;67.20;98824.89;225788;1276;22544;-83
2023/04/16 11:28:34;;;;;;;5.60;5.10;;;;;;;16.42;66.45;98820.57;225671;1278;24230;-83
2023/04/16 11:33:36;;;;;;;5.80;4.70;;;;;;;16.49;65.62;98826.34;225642;1278;22531;-83
2023/04/16 11:38:42;;;;;;;4.40;4.10;;;;;;;16.46;64.98;98823.47;225343;1278;22542;-81
2023/04/16 11:43:44;;;;;;;4.40;4.00;;;;;;;16.20;63.98;98828.10;225290;1278;22524;-83
2023/04/16 11:48:50;;;;;;;3.90;3.60;;;;;;;16.09;63.90;98827.45;225671;1278;23937;-83
2023/04/16 11:53:53;;;;;;;4.40;4.00;;;;;;;16.27;63.78;98822.89;225589;1278;25268;-83
2023/04/16 11:59:28;;;;;;;2.70;2.50;;;;;;;16.50;63.26;98817.80;225816;1275;22581;-83
2023/04/16 12:04:33;;;;;;;4.10;3.80;;;;;;;16.44;62.23;98818.87;225462;1279;22534;-84
2023/04/16 12:09:37;;;;;;;3.70;3.40;;;;;;;16.52;62.95;98822.81;225837;1272;22535;-82
2023/04/16 12:14:52;;;;;;;4.70;4.40;;;;;;;16.66;62.38;98828.33;225738;1278;22658;-84
2023/04/16 12:19:59;;;;;;;5.40;4.70;;;;;;;16.73;62.19;98823.29;225543;1278;22523;-86
2023/04/16 12:25:04;;;;;;;5.20;4.70;;;;;;;17.06;62.18;98819.77;225780;1276;22550;-83
2023/04/16 12:30:08;;;;;;;4.90;4.50;;;;;;;17.49;62.42;98815.05;225843;1275;23292;-85
2023/04/16 12:35:10;;;;;;;5.50;5.00;;;;;;;17.68;61.98;98819.27;225505;1278;22537;-82
2023/04/16 12:40:13;;;;;;;5.50;5.10;;;;;;;17.61;61.44;98817.67;225565;1278;22535;-83
2023/04/16 12:45:15;;;;;;;5.80;5.20;;;;;;;17.42;61.53;98817.83;225674;1278;22525;-82
2023/04/16 12:50:17;;;;;;;7.50;6.70;;;;;;;17.29;61.46;98815.54;225818;1278;24210;-85
2023/04/16 12:55:19;;;;;;;5.30;4.80;;;;;;;17.21;61.24;98815.04;225540;1278;26001;-84
2023/04/16 13:00:25;;;;;;;5.50;5.00;;;;;;;17.15;61.01;98813.95;225703;1278;25514;-87
2023/04/16 13:05:27;;;;;;;5.20;4.70;;;;;;;17.21;61.35;98802.79;225415;1278;23334;-82
2023/04/16 13:10:29;;;;;;;4.90;4.40;;;;;;;17.41;60.79;98806.79;225637;1278;22517;-86
2023/04/16 13:15:31;;;;;;;5.10;4.60;;;;;;;17.69;60.65;98806.98;225804;1278;22656;-85
2023/04/16 13:20:33;;;;;;;6.30;5.00;;;;;;;18.00;59.98;98807.68;225697;1278;22553;-82
2023/04/16 13:25:36;;;;;;;5.90;5.30;;;;;;;18.20;59.28;98804.30;225570;1278;22523;-84
2023/04/16 13:30:39;;;;;;;4.40;4.00;;;;;;;18.20;58.50;98800.39;225538;1278;22566;-82
2023/04/16 13:35:41;;;;;;;4.70;4.30;;;;;;;18.02;58.42;98800.33;225638;1278;22652;-85
2023/04/16 13:40:43;;;;;;;5.30;4.70;;;;;;;17.98;58.64;98795.01;225527;1278;22551;-83
2023/04/16 13:45:45;;;;;;;5.10;4.60;;;;;;;17.86;58.29;98789.68;225646;1278;23082;-84
2023/04/16 13:50:47;;;;;;;5.00;4.50;;;;;;;17.75;58.60;98796.77;225847;1276;22527;-82
2023/04/16 13:55:49;;;;;;;5.30;4.80;;;;;;;17.72;58.75;98796.73;225793;1276;26287;-84
2023/04/16 14:00:52;;;;;;;5.70;5.10;;;;;;;17.56;58.45;98793.64;225709;1278;22533;-85
2023/04/16 14:05:54;;;;;;;5.80;5.30;;;;;;;17.28;58.42;98797.83;225635;1274;22637;-85
2023/04/16 14:10:57;;;;;;;6.80;6.20;;;;;;;16.91;58.70;98796.55;225552;1278;22553;-84
2023/04/16 14:16:01;;;;;;;6.30;5.70;;;;;;;16.59;59.58;98803.41;225845;1278;22653;-82
2023/04/16 14:21:03;;;;;;;6.00;5.40;;;;;;;16.47;59.59;98802.77;225644;1278;22539;-84
2023/04/16 14:26:06;;;;;;;6.00;5.50;;;;;;;16.45;60.14;98802.41;225806;1278;22548;-82
2023/04/16 14:31:08;;;;;;;5.80;5.30;;;;;;;16.47;59.88;98803.47;225747;1278;22543;-84
2023/04/16 14:36:15;;;;;;;6.70;5.80;;;;;;;16.49;60.07;98802.33;225656;1263;22554;-84
2023/04/16 14:41:17;;;;;;;6.50;5.90;;;;;;;16.47;60.37;98797.48;225572;1279;22563;-84
2023/04/16 14:46:19;;;;;;;7.10;6.10;;;;;;;16.43;60.76;98793.08;225651;1278;22535;-85
2023/04/16 14:51:21;;;;;;;6.20;5.60;;;;;;;16.39;60.50;98793.53;225562;1278;22548;-84
2023/04/16 14:56:23;;;;;;;6.80;5.80;;;;;;;16.36;60.54;98793.48;225626;1278;22527;-84
2023/04/16 15:01:26;;;;;;;7.20;6.50;;;;;;;16.35;60.45;98796.89;225829;1278;22552;-85
2023/04/16 15:06:29;;;;;;;6.20;5.60;;;;;;;16.35;60.60;98796.25;225695;1279;22621;-84
2023/04/16 15:11:31;;;;;;;6.10;5.50;;;;;;;16.30;60.49;98792.39;225707;1279;22496;-84
2023/04/16 15:16:34;;;;;;;6.40;5.80;;;;;;;16.32;60.05;98792.00;225781;1278;25455;-83
2023/04/16 15:21:37;;;;;;;6.20;5.60;;;;;;;16.31;59.83;98793.52;225706;1278;22694;-81
2023/04/16 15:26:40;;;;;;;5.80;5.30;;;;;;;16.18;59.14;98793.95;225675;1278;22538;-83
2023/04/16 15:31:42;;;;;;;6.60;5.40;;;;;;;16.07;59.76;98799.45;225813;1278;22531;-85
2023/04/16 15:36:44;;;;;;;8.20;6.10;;;;;;;16.13;60.00;98798.20;225587;1278;22547;-84
2023/04/16 15:41:46;;;;;;;7.00;6.40;;;;;;;16.05;60.23;98806.82;225888;1276;24333;-84
2023/04/16 15:47:05;;;;;;;7.60;6.90;;;;;;;15.90;60.49;98808.14;225608;1278;22527;-85
2023/04/16 15:52:10;;;;;;;7.40;6.60;;;;;;;15.74;61.05;98808.50;225669;1279;22586;-84
2023/04/16 15:57:12;;;;;;;7.90;7.10;;;;;;;15.60;61.47;98807.74;225680;1279;26475;-84
2023/04/16 16:02:15;;;;;;;8.40;7.40;;;;;;;15.48;61.90;98806.96;225839;1278;22528;-85
2023/04/16 16:07:18;;;;;;;8.30;7.00;;;;;;;15.40;62.09;98807.86;225683;1274;22566;-85
2023/04/16 16:12:20;;;;;;;7.30;6.60;;;;;;;15.38;62.15;98810.91;225821;1279;22531;-85
2023/04/16 16:17:23;;;;;;;6.70;6.10;;;;;;;15.38;62.01;98812.35;225700;1278;22520;-84
2023/04/16 16:22:25;;;;;;;7.70;6.90;;;;;;;15.36;62.32;98815.34;225576;1278;22582;-82
2023/04/16 16:27:28;;;;;;;6.90;6.20;;;;;;;15.42;62.59;98817.17;225659;1278;22666;-84
2023/04/16 16:32:30;;;;;;;6.80;6.10;;;;;;;15.49;62.59;98817.55;225810;1278;22556;-80
2023/04/16 16:37:31;;;;;;;6.80;6.10;;;;;;;15.51;62.31;98818.48;225707;1277;22875;-85
2023/04/16 16:42:34;;;;;;;5.80;5.30;;;;;;;15.53;61.92;98817.90;225841;1276;22553;-82
2023/04/16 16:47:35;;;;;;;6.00;5.40;;;;;;;15.51;61.06;98819.39;225716;1277;22544;-84
2023/04/16 16:52:38;;;;;;;6.50;5.90;;;;;;;15.44;60.98;98821.91;225863;1278;22539;-82
2023/04/16 16:57:40;;;;;;;6.70;6.00;;;;;;;15.35;61.54;98822.39;225654;1274;24264;-85
2023/04/16 17:02:43;;;;;;;7.30;6.60;;;;;;;15.23;61.49;98829.41;225823;1278;22543;-84
2023/04/16 17:07:45;;;;;;;9.30;8.30;;;;;;;15.09;61.88;98833.45;225843;1276;22537;-84
2023/04/16 17:12:49;;;;;;;9.20;8.30;;;;;;;14.89;62.89;98840.58;225690;1278;25648;-84
2023/04/16 17:17:51;;;;;;;9.00;8.10;;;;;;;14.60;63.85;98842.98;225917;1264;25411;-84
2023/04/16 17:22:54;;;;;;;10.60;8.80;;;;;;;14.32;64.53;98850.65;225837;1276;22660;-84
2023/04/16 17:27:56;;;;;;;9.90;8.90;;;;;;;14.07;65.10;98854.23;225613;1277;22525;-84
2023/04/16 17:32:58;;;;;;;11.60;10.40;;;;;;;13.82;65.27;98856.73;225637;1265;22654;-84
2023/04/16 17:38:00;;;;;;;13.90;10.80;;;;;;;13.60;65.56;98859.09;225791;1277;22550;-77
2023/04/16 17:43:03;;;;;;;19.40;15.10;;;;;;;13.39;65.84;98861.27;225782;1274;22530;-78
2023/04/16 17:48:05;;;;;;;13.70;11.70;;;;;;;13.20;66.18;98868.34;225725;1279;22558;-78
2023/04/16 17:53:07;;;;;;;11.50;9.80;;;;;;;13.03;66.31;98871.08;225533;1279;22538;-77
2023/04/16 17:58:09;;;;;;;13.10;11.00;;;;;;;12.87;66.71;98882.95;225566;1279;23056;-78
2023/04/16 18:03:13;;;;;;;11.30;10.10;;;;;;;12.72;66.95;98888.09;225696;1273;22577;-76
2023/04/16 18:08:16;;;;;;;12.40;10.60;;;;;;;12.57;67.20;98892.92;225789;1276;25338;-77
2023/04/16 18:13:18;;;;;;;14.60;12.40;;;;;;;12.40;67.47;98900.27;225804;1264;22523;-77
2023/04/16 18:18:20;;;;;;;16.90;11.80;;;;;;;12.24;67.96;98910.74;225659;1274;22543;-78
2023/04/16 18:23:22;;;;;;;15.80;12.50;;;;;;;12.12;68.21;98908.50;225576;1270;22554;-78
2023/04/16 18:28:25;;;;;;;17.30;14.10;;;;;;;12.00;68.47;98914.47;225798;1276;22535;-77
2023/04/16 18:33:28;;;;;;;13.70;11.70;;;;;;;11.90;68.65;98917.92;225678;1274;22533;-77
2023/04/16 18:38:50;;;;;;;30.10;25.00;;;;;;;11.79;68.79;98925.17;225564;1274;22540;-77
2023/04/16 18:44:03;;;;;;;17.70;14.90;;;;;;;11.68;69.18;98927.60;225725;1278;25112;-77
2023/04/16 18:49:05;;;;;;;21.90;17.80;;;;;;;11.56;69.42;98933.40;225800;1277;22560;-77
2023/04/16 18:54:07;;;;;;;21.00;17.70;;;;;;;11.45;69.84;98933.90;225433;1276;24026;-78
2023/04/16 18:59:09;;;;;;;20.10;15.90;;;;;;;11.35;69.97;98934.86;225144;1278;22501;-77
2023/04/16 19:04:11;;;;;;;19.70;15.90;;;;;;;11.27;70.08;98935.29;225709;1275;22524;-77
2023/04/16 19:09:15;;;;;;;20.50;16.50;;;;;;;11.21;70.39;98940.43;225572;1277;22560;-77
2023/04/16 19:14:18;;;;;;;18.20;14.50;;;;;;;11.15;70.27;98940.98;225642;1277;22584;-78
2023/04/16 19:19:20;;;;;;;19.00;14.20;;;;;;;11.10;70.47;98944.96;225819;1279;22551;-78
2023/04/16 19:24:22;;;;;;;19.90;15.40;;;;;;;11.05;70.44;98942.77;225754;1276;22535;-78
2023/04/16 19:29:25;;;;;;;16.20;12.40;;;;;;;11.01;70.52;98943.30;225853;1276;22546;-77
2023/04/16 19:34:27;;;;;;;12.30;9.40;;;;;;;11.00;70.23;98939.34;225755;1278;22552;-77
2023/04/16 19:39:30;;;;;;;13.30;9.70;;;;;;;11.05;70.29;98939.84;225779;1276;22628;-78
2023/04/16 19:44:32;;;;;;;11.80;9.50;;;;;;;11.09;70.38;98939.37;225829;1275;22589;-77
2023/04/16 19:49:34;;;;;;;11.30;9.60;;;;;;;11.10;70.22;98934.27;225816;1278;22537;-78
2023/04/16 19:54:36;;;;;;;13.80;11.30;;;;;;;11.10;69.98;98935.48;225648;1278;22540;-78
2023/04/16 19:59:38;;;;;;;13.30;11.30;;;;;;;11.08;70.17;98942.25;225590;1278;22569;-77
2023/04/16 20:04:41;;;;;;;14.50;11.90;;;;;;;11.06;70.25;98943.23;225844;1275;22540;-78
2023/04/16 20:09:43;;;;;;;15.10;11.40;;;;;;;11.03;70.43;98943.77;225472;1278;22520;-77
2023/04/16 20:14:46;;;;;;;14.70;11.60;;;;;;;11.01;70.52;98942.20;225794;1278;22570;-77
2023/04/16 20:19:48;;;;;;;15.40;11.80;;;;;;;11.00;70.69;98941.48;225891;1275;22534;-77
2023/04/16 20:24:53;;;;;;;13.30;11.30;;;;;;;10.97;70.93;98942.34;225931;1276;22584;-78
2023/04/16 20:29:56;;;;;;;16.60;12.10;;;;;;;10.91;70.69;98942.38;225661;1278;22534;-77
2023/04/16 20:34:58;;;;;;;18.30;13.20;;;;;;;10.84;71.09;98943.43;225640;1278;22546;-77
2023/04/16 20:40:00;;;;;;;17.00;12.90;;;;;;;10.78;71.10;98942.73;225675;1278;23254;-77
2023/04/16 20:45:03;;;;;;;15.20;12.40;;;;;;;10.67;71.33;98942.66;225964;1278;22530;-77
2023/04/16 20:50:06;;;;;;;16.90;12.70;;;;;;;10.54;71.49;98940.14;225741;1273;22661;-77
2023/04/16 20:55:08;;;;;;;16.10;12.80;;;;;;;10.41;71.54;98941.27;225949;1278;22530;-77
2023/04/16 21:00:11;;;;;;;20.00;14.30;;;;;;;10.26;71.69;98943.91;225897;1276;22530;-78
2023/04/16 21:05:13;;;;;;;17.60;13.80;;;;;;;10.12;71.88;98946.43;225694;1278;22534;-78
2023/04/16 21:10:19;;;;;;;18.60;14.30;;;;;;;9.97;72.11;98940.27;225637;1278;22542;-78
2023/04/16 21:15:25;;;;;;;23.00;14.90;;;;;;;9.84;72.29;98941.63;225737;1278;22569;-77
2023/04/16 21:20:27;;;;;;;18.30;14.70;;;;;;;9.71;72.61;98936.99;225854;1275;24163;-77
2023/04/16 21:25:32;;;;;;;19.50;14.70;;;;;;;9.58;72.89;98936.90;225631;1277;22583;-78
2023/04/16 21:30:35;;;;;;;20.00;15.30;;;;;;;9.50;73.17;98939.21;225893;1278;24346;-78
2023/04/16 21:35:38;;;;;;;20.10;15.50;;;;;;;9.45;73.40;98939.45;225680;1276;23805;-78
2023/04/16 21:40:40;;;;;;;19.40;14.70;;;;;;;9.41;73.45;98935.27;225963;1278;22561;-78
2023/04/16 21:45:44;;;;;;;22.40;14.70;;;;;;;9.33;73.75;98930.48;225767;1272;22601;-78
2023/04/16 21:50:56;;;;;;;30.60;24.40;;;;;;;9.25;74.20;98932.18;225781;1274;22561;-76
2023/04/16 21:55:59;;;;;;;35.20;22.90;;;;;;;9.14;74.02;98937.24;225687;1277;22563;-76
2023/04/16 22:01:01;;;;;;;30.40;22.70;;;;;;;9.04;74.33;98941.26;225958;1278;22557;-77
2023/04/16 22:06:04;;;;;;;28.60;22.40;;;;;;;8.94;74.58;98944.67;225978;1273;23484;-77
2023/04/16 22:11:06;;;;;;;28.90;20.30;;;;;;;8.85;74.58;98946.01;225682;1274;23230;-78
2023/04/16 22:16:09;;;;;;;24.90;18.90;;;;;;;8.79;75.26;98940.33;225745;1278;22525;-77
2023/04/16 22:21:12;;;;;;;26.60;18.50;;;;;;;8.75;75.61;98948.23;225925;1278;22554;-77
2023/04/16 22:26:14;;;;;;;28.20;21.40;;;;;;;8.73;76.05;98950.16;225758;1263;210600;-76
2023/04/16 22:31:16;;;;;;;21.10;16.30;;;;;;;8.72;75.96;98950.82;225999;1277;22539;-77
2023/04/16 22:36:19;;;;;;;21.60;16.20;;;;;;;8.68;76.08;98952.38;225873;1276;22536;-76
2023/04/16 22:41:21;;;;;;;24.70;16.30;;;;;;;8.61;76.09;98952.41;225672;1278;22535;-77
2023/04/16 22:46:24;;;;;;;23.10;16.10;;;;;;;8.57;76.25;98954.70;225962;1278;22659;-78
2023/04/16 22:51:27;;;;;;;19.00;15.20;;;;;;;8.49;76.40;98957.65;225874;1278;22536;-75
2023/04/16 22:56:29;;;;;;;16.90;14.10;;;;;;;8.40;76.35;98954.04;225954;1275;22573;-77
2023/04/16 23:01:33;;;;;;;23.30;18.60;;;;;;;8.32;76.73;98953.02;225954;1272;22947;-77
2023/04/16 23:06:36;;;;;;;25.60;18.10;;;;;;;8.25;77.00;98947.48;225996;1278;25275;-78
2023/04/16 23:11:39;;;;;;;29.30;22.80;;;;;;;8.24;77.29;98945.01;225950;1278;22557;-78
2023/04/16 23:16:43;;;;;;;25.70;20.70;;;;;;;8.21;77.38;98944.90;225954;1278;22527;-77